Time;durP1;ratioP1;P1;durP2;ratioP2;P2;SDS_P1;SDS_P2;PMS_P1;PMS_P2;Temp;Humidity;BMP_temperature;BMP_pressure;BME280_temperature;BME280_humidity;BME280_pressure;Samples;Min_cycle;Max_cycle;Signal;HPM_P1;HPM_P2
2019/09/13 00:01:51;;;;;;;7.5;4.6;;;;;;;;;;;;;
2019/09/13 00:04:17;;;;;;;7.1;4.7;;;;;;;;;;;;;
2019/09/13 00:07:15;;;;;;;7.4;4.5;;;;;;;;;;;;;
2019/09/13 00:09:35;;;;;;;6.8;4.5;;;;;;;;;;;;;
2019/09/13 00:12:01;;;;;;;6.1;4.2;;;;;;;;;;;;;
2019/09/13 00:14:25;;;;;;;6.7;4;;;;;;;;;;;;;
2019/09/13 00:16:54;;;;;;;7;4.1;;;;;;;;;;;;;
2019/09/13 00:19:20;;;;;;;5.7;4.6;;;;;;;;;;;;;
2019/09/13 00:21:44;;;;;;;7.5;4.6;;;;;;;;;;;;;
2019/09/13 00:24:16;;;;;;;6.6;4.7;;;;;;;;;;;;;
2019/09/13 00:26:45;;;;;;;8.3;4.8;;;;;;;;;;;;;
2019/09/13 00:29:08;;;;;;;7.4;4.8;;;;;;;;;;;;;
2019/09/13 00:31:32;;;;;;;5.9;4.4;;;;;;;;;;;;;
2019/09/13 00:34:01;;;;;;;9.7;4;;;;;;;;;;;;;
2019/09/13 00:36:24;;;;;;;5.7;4.2;;;;;;;;;;;;;
2019/09/13 00:38:48;;;;;;;8.4;4.4;;;;;;;;;;;;;
2019/09/13 00:41:20;;;;;;;8.5;4.5;;;;;;;;;;;;;
2019/09/13 00:43:38;;;;;;;7.7;4.3;;;;;;;;;;;;;
2019/09/13 00:46:06;;;;;;;5.6;4.5;;;;;;;;;;;;;
2019/09/13 00:50:54;;;;;;;5.8;4.5;;;;;;;;;;;;;
2019/09/13 00:53:23;;;;;;;5.7;4.2;;;;;;;;;;;;;
2019/09/13 00:55:49;;;;;;;4.9;4;;;;;;;;;;;;;
2019/09/13 00:58:13;;;;;;;4.9;4.3;;;;;;;;;;;;;
2019/09/13 01:00:36;;;;;;;8.1;4.3;;;;;;;;;;;;;
2019/09/13 01:03:05;;;;;;;5.9;4.4;;;;;;;;;;;;;
2019/09/13 01:05:33;;;;;;;6.9;4.5;;;;;;;;;;;;;
2019/09/13 01:10:18;;;;;;;7.8;4.6;;;;;;;;;;;;;
2019/09/13 01:12:47;;;;;;;10;4.7;;;;;;;;;;;;;
2019/09/13 01:15:10;;;;;;;6.4;4.2;;;;;;;;;;;;;
2019/09/13 01:17:34;;;;;;;5.5;4;;;;;;;;;;;;;
2019/09/13 01:19:59;;;;;;;6.7;4.2;;;;;;;;;;;;;
2019/09/13 01:22:28;;;;;;;6.8;4.8;;;;;;;;;;;;;
2019/09/13 01:25:18;;;;;;;6.3;4.3;;;;;;;;;;;;;
2019/09/13 01:27:27;;;;;;;6.3;4.3;;;;;;;;;;;;;
2019/09/13 01:29:52;;;;;;;7.1;4.4;;;;;;;;;;;;;
2019/09/13 01:32:17;;;;;;;7.5;4.6;;;;;;;;;;;;;
2019/09/13 01:34:46;;;;;;;8.4;5.3;;;;;;;;;;;;;
2019/09/13 01:37:09;;;;;;;8.4;5.1;;;;;;;;;;;;;
2019/09/13 01:39:34;;;;;;;6.2;4.7;;;;;;;;;;;;;
2019/09/13 01:42:07;;;;;;;7.4;4.7;;;;;;;;;;;;;
2019/09/13 01:44:26;;;;;;;7.5;4.8;;;;;;;;;;;;;
2019/09/13 01:46:52;;;;;;;9.4;4.9;;;;;;;;;;;;;
2019/09/13 01:49:16;;;;;;;8.5;4.1;;;;;;;;;;;;;
2019/09/13 01:51:47;;;;;;;6.4;4.2;;;;;;;;;;;;;
2019/09/13 01:54:07;;;;;;;6.4;4.6;;;;;;;;;;;;;
2019/09/13 01:56:34;;;;;;;8.6;4.9;;;;;;;;;;;;;
2019/09/13 01:59:16;;;;;;;6.7;4.5;;;;;;;;;;;;;
2019/09/13 02:01:42;;;;;;;6;4.6;;;;;;;;;;;;;
2019/09/13 02:04:08;;;;;;;8.4;5;;;;;;;;;;;;;
2019/09/13 02:06:33;;;;;;;6;5.1;;;;;;;;;;;;;
2019/09/13 02:08:59;;;;;;;7.8;5;;;;;;;;;;;;;
2019/09/13 02:11:22;;;;;;;7.3;4.7;;;;;;;;;;;;;
2019/09/13 02:13:54;;;;;;;10.1;5.2;;;;;;;;;;;;;
2019/09/13 02:18:40;;;;;;;8.8;6;;;;;;;;;;;;;
2019/09/13 02:21:03;;;;;;;8.4;5.2;;;;;;;;;;;;;
2019/09/13 02:26:03;;;;;;;9.2;5.4;;;;;;;;;;;;;
2019/09/13 02:28:27;;;;;;;8.5;5.1;;;;;;;;;;;;;
2019/09/13 02:30:52;;;;;;;10;4.9;;;;;;;;;;;;;
2019/09/13 02:33:17;;;;;;;7.8;4.4;;;;;;;;;;;;;
2019/09/13 02:35:44;;;;;;;7.3;5;;;;;;;;;;;;;
2019/09/13 02:38:08;;;;;;;7.3;5.1;;;;;;;;;;;;;
2019/09/13 02:42:58;;;;;;;5.7;4.7;;;;;;;;;;;;;
2019/09/13 02:47:53;;;;;;;10.8;4.9;;;;;;;;;;;;;
2019/09/13 02:50:18;;;;;;;6.8;4.7;;;;;;;;;;;;;
2019/09/13 02:52:45;;;;;;;6.4;4.4;;;;;;;;;;;;;
2019/09/13 02:55:09;;;;;;;6.5;4.5;;;;;;;;;;;;;
2019/09/13 02:57:35;;;;;;;6;4.9;;;;;;;;;;;;;
2019/09/13 02:59:58;;;;;;;7;4.5;;;;;;;;;;;;;
2019/09/13 03:02:27;;;;;;;7.1;5;;;;;;;;;;;;;
2019/09/13 03:04:48;;;;;;;8.3;4.5;;;;;;;;;;;;;
2019/09/13 03:07:16;;;;;;;6.6;4.4;;;;;;;;;;;;;
2019/09/13 03:09:47;;;;;;;7.6;4.4;;;;;;;;;;;;;
2019/09/13 03:12:22;;;;;;;6.9;4.5;;;;;;;;;;;;;
2019/09/13 03:14:41;;;;;;;9.9;5.1;;;;;;;;;;;;;
2019/09/13 03:17:05;;;;;;;6.9;4.8;;;;;;;;;;;;;
2019/09/13 03:19:39;;;;;;;5.2;4.6;;;;;;;;;;;;;
2019/09/13 03:22:04;;;;;;;5.3;4.8;;;;;;;;;;;;;
2019/09/13 03:24:33;;;;;;;8.2;5;;;;;;;;;;;;;
2019/09/13 03:26:59;;;;;;;7.4;4.8;;;;;;;;;;;;;
2019/09/13 03:29:27;;;;;;;8.5;4.8;;;;;;;;;;;;;
2019/09/13 03:31:53;;;;;;;7.3;4.9;;;;;;;;;;;;;
2019/09/13 03:34:15;;;;;;;8.6;5.1;;;;;;;;;;;;;
2019/09/13 03:36:39;;;;;;;5.7;4.4;;;;;;;;;;;;;
2019/09/13 03:39:09;;;;;;;6.7;5.1;;;;;;;;;;;;;
2019/09/13 03:41:33;;;;;;;9.1;5.4;;;;;;;;;;;;;
2019/09/13 03:44:01;;;;;;;9.4;4.9;;;;;;;;;;;;;
2019/09/13 03:46:27;;;;;;;10.4;5.2;;;;;;;;;;;;;
2019/09/13 03:48:52;;;;;;;6.3;4.6;;;;;;;;;;;;;
2019/09/13 03:51:17;;;;;;;7.8;5.3;;;;;;;;;;;;;
2019/09/13 03:53:45;;;;;;;7.4;5;;;;;;;;;;;;;
2019/09/13 03:56:09;;;;;;;7.5;4.9;;;;;;;;;;;;;
2019/09/13 03:58:34;;;;;;;7.4;4.8;;;;;;;;;;;;;
2019/09/13 04:02:33;;;;;;;10.1;5.1;;;;;;;12.64;87.74805;953.2842;;;;
2019/09/13 04:04:56;;;;;;;8.6;5.5;;;;;;;12.58;87.98828;953.2367;;;;
2019/09/13 04:07:28;;;;;;;7.2;5.1;;;;;;;12.65;87.69043;953.3315;;;;
2019/09/13 04:09:55;;;;;;;7;5.3;;;;;;;12.72;86.9707;953.3108;;;;
2019/09/13 04:12:25;;;;;;;9.3;5.3;;;;;;;12.71;87.21973;953.2969;;;;
2019/09/13 04:14:51;;;;;;;16;5.1;;;;;;;12.84;86.68652;953.3334;;;;
2019/09/13 04:17:24;;;;;;;8;4.5;;;;;;;12.9;86.30664;953.3566;;;;
2019/09/13 04:19:56;;;;;;;8.2;4.8;;;;;;;12.94;85.72852;953.355;;;;
2019/09/13 04:22:27;;;;;;;7.9;4.9;;;;;;;12.76;86.6582;953.3184;;;;
2019/09/13 04:24:53;;;;;;;7.5;5.1;;;;;;;12.74;86.53809;953.3257;;;;
2019/09/13 04:27:23;;;;;;;10.9;5.1;;;;;;;12.71;86.23438;953.3035;;;;
2019/09/13 04:29:57;;;;;;;10.8;5.4;;;;;;;12.54;86.91211;953.2883;;;;
2019/09/13 04:32:29;;;;;;;8.7;4.8;;;;;;;12.5;87.27148;953.3153;;;;
2019/09/13 04:35:03;;;;;;;7;4.6;;;;;;;12.43;87.7041;953.3455;;;;
2019/09/13 04:37:36;;;;;;;5.8;4.5;;;;;;;12.53;87.11621;953.392;;;;
2019/09/13 04:40:05;;;;;;;9.9;4.7;;;;;;;12.61;86.7998;953.43;;;;
2019/09/13 04:42:30;;;;;;;9.4;4.4;;;;;;;12.71;86.47559;953.4745;;;;
2019/09/13 04:45:02;;;;;;;6.3;4.7;;;;;;;12.55;86.87891;953.5059;;;;
2019/09/13 04:47:35;;;;;;;7.3;4.6;;;;;;;12.55;86.79883;953.4851;;;;
2019/09/13 04:50:11;;;;;;;9.4;4.6;;;;;;;12.58;86.62305;953.5556;;;;
2019/09/13 04:52:42;;;;;;;5.9;4.1;;;;;;;12.65;86.26855;953.5472;;;;
2019/09/13 04:55:10;;;;;;;7.1;4.5;;;;;;;12.58;87.26465;953.6019;;;;
2019/09/13 04:57:38;;;;;;;8.5;4.5;;;;;;;12.57;87.58496;953.6016;;;;
2019/09/13 05:00:10;;;;;;;7.8;4.8;;;;;;;12.45;88.23535;953.6247;;;;
2019/09/13 05:02:43;;;;;;;12.3;6;;;;;;;12.31;88.78125;953.6088;;;;
2019/09/13 05:05:07;;;;;;;12.3;7.9;;;;;;;12.39;88.4082;953.6253;;;;
2019/09/13 05:07:39;;;;;;;18.3;10.9;;;;;;;12.56;87.24805;953.6451;;;;
2019/09/13 05:10:07;;;;;;;18.2;8.4;;;;;;;12.55;87.23535;953.6321;;;;
2019/09/13 05:12:35;;;;;;;16.3;6.7;;;;;;;12.7;86.58887;953.5725;;;;
2019/09/13 05:15:06;;;;;;;12.2;6.3;;;;;;;12.45;87.76563;953.6408;;;;
2019/09/13 05:17:36;;;;;;;10.6;5.6;;;;;;;12.41;88.38867;953.5396;;;;
2019/09/13 05:20:04;;;;;;;12;6.2;;;;;;;12.48;87.96582;953.6032;;;;
2019/09/13 05:22:38;;;;;;;18.7;7.3;;;;;;;12.44;88.18945;953.5822;;;;
2019/09/13 05:25:10;;;;;;;12.3;6.6;;;;;;;12.63;87.0332;953.5292;;;;
2019/09/13 05:27:38;;;;;;;11.2;5.9;;;;;;;12.63;86.79199;953.5963;;;;
2019/09/13 05:30:01;;;;;;;12.4;6.1;;;;;;;12.65;86.72754;953.6;;;;
2019/09/13 05:35:10;;;;;;;13.1;6;;;;;;;12.67;86.74414;953.416;;;;
2019/09/13 05:37:45;;;;;;;9.1;5.6;;;;;;;12.79;86.13574;953.4924;;;;
2019/09/13 05:40:15;;;;;;;12.2;5.7;;;;;;;12.79;86.79004;953.4741;;;;
2019/09/13 05:42:43;;;;;;;10.4;6;;;;;;;12.83;87.45215;953.4825;;;;
2019/09/13 05:45:07;;;;;;;12.8;6.3;;;;;;;12.82;88.16211;953.4934;;;;
2019/09/13 05:47:45;;;;;;;13.7;6.2;;;;;;;12.95;87.9248;953.5225;;;;
2019/09/13 05:50:03;;;;;;;8.5;5.4;;;;;;;13.07;87.54688;953.5192;;;;
2019/09/13 05:52:29;;;;;;;11.4;5.5;;;;;;;13.36;86.26074;953.5203;;;;
2019/09/13 05:54:59;;;;;;;11.5;5.6;;;;;;;13.42;85.96289;953.5156;;;;
2019/09/13 05:57:36;;;;;;;13.9;5.3;;;;;;;13.55;85.57324;953.4417;;;;
2019/09/13 05:59:47;;;;;;;8.7;4.4;;;;;;;13.92;84.25391;953.4895;;;;
2019/09/13 06:03:10;;;;;;;11.1;4.5;;;;;;;14.42;82.20703;953.4612;;;;
2019/09/13 06:05:36;;;;;;;7.1;4;;;;;;;15.1;78.72559;953.5033;;;;
2019/09/13 06:08:05;;;;;;;11.3;5.2;;;;;;;15.37;77.59668;953.4791;;;;
2019/09/13 06:11:10;;;;;;;12.9;6.5;;;;;;;15.56;76.79688;953.4789;;;;
2019/09/13 06:16:28;;;;;;;6.7;4;;;;;;;16.16;74.56641;953.4183;;;;
2019/09/13 06:19:15;;;;;;;6.4;3.7;;;;;;;16.01;74.8877;953.478;;;;
2019/09/13 06:21:44;;;;;;;5.5;3.1;;;;;;;15.96;75.35352;953.5215;;;;
2019/09/13 06:24:16;;;;;;;5.6;3.1;;;;;;;15.95;75.56055;953.4716;;;;
2019/09/13 06:26:45;;;;;;;6.8;3.4;;;;;;;16.15;74.3457;953.3741;;;;
2019/09/13 06:29:17;;;;;;;6.7;3.1;;;;;;;16.34;73.98438;953.2648;;;;
2019/09/13 06:34:21;;;;;;;5.2;3.2;;;;;;;16.77;72.84082;953.296;;;;
2019/09/13 06:36:49;;;;;;;6;3.5;;;;;;;16.99;72.16992;953.2597;;;;
2019/09/13 06:39:20;;;;;;;6;2.8;;;;;;;16.98;71.90234;953.1984;;;;
2019/09/13 06:41:44;;;;;;;10.1;3.3;;;;;;;16.87;72.39453;953.2916;;;;
2019/09/13 06:44:12;;;;;;;5.2;2.6;;;;;;;16.91;72.3418;953.23;;;;
2019/09/13 06:46:38;;;;;;;5.7;3;;;;;;;17.24;73.05664;953.1955;;;;
2019/09/13 06:49:07;;;;;;;7.8;2.9;;;;;;;17.4;71.27539;953.2886;;;;
2019/09/13 06:51:32;;;;;;;5;3;;;;;;;17.65;71.83789;953.2458;;;;
2019/09/13 06:53:59;;;;;;;3.3;2.3;;;;;;;17.87;69.77148;953.2556;;;;
2019/09/13 06:56:37;;;;;;;8.6;2.7;;;;;;;18.18;68.03223;953.2438;;;;
2019/09/13 06:59:13;;;;;;;4.3;2.3;;;;;;;17.74;68.33496;953.2126;;;;
2019/09/13 07:01:47;;;;;;;5.8;2.7;;;;;;;18.33;67.1709;953.1954;;;;
2019/09/13 07:04:11;;;;;;;4.6;2.3;;;;;;;18.43;65.82617;953.1839;;;;
2019/09/13 07:06:42;;;;;;;7.4;3;;;;;;;18.29;67.43164;953.1992;;;;
2019/09/13 07:09:11;;;;;;;5.6;2.5;;;;;;;18.4;66.8916;953.1811;;;;
2019/09/13 07:11:34;;;;;;;8.2;2.8;;;;;;;18.98;66.50293;953.1803;;;;
2019/09/13 07:14:03;;;;;;;5.9;2.4;;;;;;;19.47;63.65137;953.1876;;;;
2019/09/13 07:16:30;;;;;;;6.8;2.3;;;;;;;19.89;64.23633;953.1021;;;;
2019/09/13 07:18:57;;;;;;;7.7;2.6;;;;;;;20.27;61.26758;953.0818;;;;
2019/09/13 07:21:20;;;;;;;5.8;2.2;;;;;;;20.5;60.5166;953.0806;;;;
2019/09/13 07:23:50;;;;;;;7.4;2.2;;;;;;;21.25;60.14063;953.1014;;;;
2019/09/13 07:26:14;;;;;;;5.9;2.3;;;;;;;22.56;55.5293;953.0936;;;;
2019/09/13 07:28:46;;;;;;;5.2;2.2;;;;;;;23.77;53.62207;953.1064;;;;
2019/09/13 07:31:12;;;;;;;6.3;2.2;;;;;;;25.05;49.38672;953.1047;;;;
2019/09/13 07:33:39;;;;;;;6.8;2.2;;;;;;;25.98;46.48535;953.1075;;;;
2019/09/13 07:36:04;;;;;;;5.4;1.7;;;;;;;27.07;44.70117;953.0759;;;;
2019/09/13 07:38:27;;;;;;;4.5;1.9;;;;;;;26.71;42.91309;953.0363;;;;
2019/09/13 07:40:58;;;;;;;4;1.6;;;;;;;27.71;42.08301;953.1153;;;;
2019/09/13 07:43:24;;;;;;;3;1.6;;;;;;;28.54;40.45996;953.1105;;;;
2019/09/13 07:45:57;;;;;;;2;1.2;;;;;;;29.16;37.43066;953.0511;;;;
2019/09/13 07:48:25;;;;;;;3.2;1.4;;;;;;;29.2;36.79199;952.9892;;;;
2019/09/13 07:50:49;;;;;;;4.1;1.6;;;;;;;28.66;37.9834;952.9939;;;;
2019/09/13 07:53:16;;;;;;;3.4;1.5;;;;;;;27.75;39.52148;953.0322;;;;
2019/09/13 07:55:44;;;;;;;3.7;1.3;;;;;;;27.24;39.45313;953.0422;;;;
2019/09/13 07:58:05;;;;;;;3.6;1.9;;;;;;;27.07;40.43457;952.9778;;;;
2019/09/13 08:00:37;;;;;;;3.7;1.4;;;;;;;27.84;39.13867;953.012;;;;
2019/09/13 08:03:10;;;;;;;4.6;1.6;;;;;;;29.17;37.65723;952.9571;;;;
2019/09/13 08:05:42;;;;;;;2.8;1.4;;;;;;;28.08;38.80371;952.9875;;;;
2019/09/13 08:08:12;;;;;;;2.8;1.4;;;;;;;28.32;38.38379;952.9999;;;;
2019/09/13 08:10:41;;;;;;;1.9;1.3;;;;;;;29.88;37.78809;953.0009;;;;
2019/09/13 08:13:21;;;;;;;4.6;1.7;;;;;;;30.25;34.67969;952.9411;;;;
2019/09/13 08:15:56;;;;;;;3.6;1.4;;;;;;;31.55;32.66016;952.9535;;;;
2019/09/13 08:18:26;;;;;;;2.8;1.4;;;;;;;32.17;32.56152;952.9431;;;;
2019/09/13 08:21:20;;;;;;;3.6;1.5;;;;;;;32.71;33.96875;952.9329;;;;
2019/09/13 08:23:43;;;;;;;5.5;1.6;;;;;;;33.07;30.96875;952.9364;;;;
2019/09/13 08:26:07;;;;;;;2.7;1.4;;;;;;;32.97;30.79297;952.9136;;;;
2019/09/13 08:28:33;;;;;;;3.5;1.3;;;;;;;33.49;31.2373;952.8761;;;;
2019/09/13 08:31:00;;;;;;;3.9;1.4;;;;;;;33.73;32.38477;952.853;;;;
2019/09/13 08:33:28;;;;;;;3.4;1.3;;;;;;;33.63;30.2002;952.8123;;;;
2019/09/13 08:35:59;;;;;;;3.5;1.6;;;;;;;32.34;30.67871;952.7803;;;;
2019/09/13 08:38:30;;;;;;;3.8;1.4;;;;;;;32.81;31.33496;952.7553;;;;
2019/09/13 08:41:02;;;;;;;3.3;1.3;;;;;;;32.73;31.20898;952.7783;;;;
2019/09/13 08:43:25;;;;;;;2.2;1.3;;;;;;;32.58;30.59863;952.8074;;;;
2019/09/13 08:45:56;;;;;;;1.7;1.2;;;;;;;32.79;30.50488;952.7463;;;;
2019/09/13 08:48:34;;;;;;;4.6;1.4;;;;;;;32.2;31.9043;952.7849;;;;
2019/09/13 08:50:55;;;;;;;2.3;1.3;;;;;;;32.06;31.99023;952.7197;;;;
2019/09/13 08:53:24;;;;;;;2.8;1.3;;;;;;;32.02;31.86816;952.7492;;;;
2019/09/13 08:55:50;;;;;;;3.4;1.1;;;;;;;31.79;35.20508;952.7972;;;;
2019/09/13 08:58:19;;;;;;;3.1;1.2;;;;;;;30.98;35.04688;952.7576;;;;
2019/09/13 09:01:16;;;;;;;3.2;1.4;;;;;;;31.63;34.33105;952.793;;;;
2019/09/13 09:03:45;;;;;;;2.4;1.3;;;;;;;30.55;35.84961;952.7463;;;;
2019/09/13 09:06:08;;;;;;;4.4;1.3;;;;;;;30.69;36.25488;952.7814;;;;
2019/09/13 09:08:36;;;;;;;3;1.4;;;;;;;30.56;36.55469;952.7656;;;;
2019/09/13 09:11:06;;;;;;;4.6;1.4;;;;;;;29.61;38.94629;952.7617;;;;
2019/09/13 09:13:28;;;;;;;4;1.6;;;;;;;30.01;36.47461;952.7809;;;;
2019/09/13 09:15:57;;;;;;;4.3;1.6;;;;;;;29.62;38.93555;952.7127;;;;
2019/09/13 09:18:25;;;;;;;4.7;1.6;;;;;;;29.57;37.03516;952.6541;;;;
2019/09/13 09:20:54;;;;;;;6.1;1.7;;;;;;;29.18;37.18262;952.685;;;;
2019/09/13 09:23:23;;;;;;;5.4;1.8;;;;;;;27.78;42.87305;952.6635;;;;
2019/09/13 09:25:55;;;;;;;3.4;1.4;;;;;;;27.81;38.94629;952.6245;;;;
2019/09/13 09:28:24;;;;;;;5;1.4;;;;;;;27.57;40.72852;952.6094;;;;
2019/09/13 09:30:51;;;;;;;5.8;1.7;;;;;;;26.78;44.30664;952.5859;;;;
2019/09/13 09:35:44;;;;;;;3.5;1.5;;;;;;;26.02;48.22852;952.5441;;;;
2019/09/13 09:38:08;;;;;;;2.8;1.4;;;;;;;25.81;45.72363;952.4327;;;;
2019/09/13 09:40:36;;;;;;;3.8;1.5;;;;;;;25.74;47.02734;952.4026;;;;
2019/09/13 09:43:04;;;;;;;3.8;1.4;;;;;;;25.37;43.375;952.3519;;;;
2019/09/13 09:45:41;;;;;;;2.1;1.4;;;;;;;25.46;45.46289;952.3246;;;;
2019/09/13 09:48:07;;;;;;;2.3;1.5;;;;;;;25.22;47.84766;952.3367;;;;
2019/09/13 09:50:32;;;;;;;4.2;1.7;;;;;;;25.57;48.06152;952.334;;;;
2019/09/13 09:53:03;;;;;;;3.1;1.4;;;;;;;25.92;46.94043;952.2845;;;;
2019/09/13 09:55:28;;;;;;;4.3;1.7;;;;;;;25.75;45.98828;952.267;;;;
2019/09/13 09:58:01;;;;;;;3.9;1.7;;;;;;;25.53;45.3877;952.1873;;;;
2019/09/13 10:00:38;;;;;;;4.4;1.9;;;;;;;25.49;48.32422;952.1998;;;;
2019/09/13 10:03:05;;;;;;;5.6;1.6;;;;;;;25.5;48.07715;952.1997;;;;
2019/09/13 10:06:17;;;;;;;6.4;1.6;;;;;;;25.27;47.12109;952.2361;;;;
2019/09/13 10:08:42;;;;;;;8.6;1.8;;;;;;;25.37;47.52051;952.1692;;;;
2019/09/13 10:11:05;;;;;;;7.7;1.6;;;;;;;25.15;46.37598;952.1289;;;;
2019/09/13 10:16:30;;;;;;;1.9;1.3;;;;;;;25.18;49.66016;952.063;;;;
2019/09/13 10:19:03;;;;;;;2.2;1.3;;;;;;;25.18;46.11914;952.0294;;;;
2019/09/13 10:21:29;;;;;;;2.1;1.3;;;;;;;25.19;46.81641;952.0317;;;;
2019/09/13 10:23:59;;;;;;;2.2;1.3;;;;;;;25.27;46.83691;951.9981;;;;
2019/09/13 10:29:13;;;;;;;3.5;1.4;;;;;;;25.57;45.68652;951.975;;;;
2019/09/13 10:32:15;;;;;;;2.8;1.3;;;;;;;25.81;45.56934;951.9306;;;;
2019/09/13 10:34:29;;;;;;;2.3;1.2;;;;;;;26.25;45.57813;951.9345;;;;
2019/09/13 10:36:55;;;;;;;3.8;1.1;;;;;;;26.31;45.94043;951.872;;;;
2019/09/13 10:39:28;;;;;;;2.7;1.2;;;;;;;26.64;45.30957;951.8132;;;;
2019/09/13 10:41:48;;;;;;;3.7;1.2;;;;;;;26.71;45.02051;951.8092;;;;
2019/09/13 10:44:11;;;;;;;4.5;1.3;;;;;;;26.7;44.39258;951.8325;;;;
2019/09/13 10:46:53;;;;;;;2.2;1.3;;;;;;;26.89;44.62402;951.758;;;;
2019/09/13 10:49:18;;;;;;;2.8;1.4;;;;;;;26.87;44.76367;951.7457;;;;
2019/09/13 10:51:48;;;;;;;3.5;1.4;;;;;;;26.96;45.98242;951.7313;;;;
2019/09/13 10:54:18;;;;;;;2.8;1.2;;;;;;;27.19;44.8916;951.7823;;;;
2019/09/13 10:56:48;;;;;;;4.1;1.2;;;;;;;27.26;44.24609;951.7834;;;;
2019/09/13 10:59:17;;;;;;;2.7;1.3;;;;;;;27.26;45.52734;951.7958;;;;
2019/09/13 11:01:51;;;;;;;2.7;1.4;;;;;;;27.39;44.41406;951.7838;;;;
2019/09/13 11:04:16;;;;;;;3.3;1.3;;;;;;;27.93;43.68359;951.7896;;;;
2019/09/13 11:06:47;;;;;;;2;1.2;;;;;;;28.36;42.17871;951.7073;;;;
2019/09/13 11:09:16;;;;;;;2.3;1.4;;;;;;;29.05;42.4707;951.7272;;;;
2019/09/13 11:11:44;;;;;;;3.4;1.2;;;;;;;29.89;40.46094;951.7123;;;;
2019/09/13 11:14:07;;;;;;;3.2;1.2;;;;;;;31.05;37.0498;951.7489;;;;
2019/09/13 11:16:38;;;;;;;2.5;1.3;;;;;;;31.85;36.07324;951.709;;;;
2019/09/13 11:19:13;;;;;;;2.2;1.3;;;;;;;32.15;33.93848;951.6877;;;;
2019/09/13 11:21:41;;;;;;;2.7;1.2;;;;;;;32.57;34.10156;951.6959;;;;
2019/09/13 11:24:07;;;;;;;3.2;1.2;;;;;;;32.63;33.9375;951.7136;;;;
2019/09/13 11:26:34;;;;;;;2.8;1.2;;;;;;;33.1;33.12012;951.7299;;;;
2019/09/13 11:29:14;;;;;;;3.1;1.2;;;;;;;34.21;32.20215;951.6639;;;;
2019/09/13 11:31:33;;;;;;;5;1.2;;;;;;;34.92;30.84082;951.7123;;;;
2019/09/13 11:34:01;;;;;;;2.7;1.2;;;;;;;35.76;29.26563;951.6794;;;;
2019/09/13 11:36:28;;;;;;;1.6;1.1;;;;;;;36.2;28.1084;951.7046;;;;
2019/09/13 11:38:51;;;;;;;2.4;1.2;;;;;;;36.68;27.20605;951.6608;;;;
2019/09/13 11:41:18;;;;;;;2.1;1.2;;;;;;;37.52;27.65625;951.6043;;;;
2019/09/13 11:43:47;;;;;;;3.9;1.2;;;;;;;38.41;26.50684;951.5881;;;;
2019/09/13 11:46:11;;;;;;;9.7;1.4;;;;;;;38.3;26.40332;951.5876;;;;
2019/09/13 11:48:41;;;;;;;2.7;1.1;;;;;;;38.17;25.5332;951.5731;;;;
2019/09/13 11:51:08;;;;;;;3.7;1.2;;;;;;;37.92;25.66504;951.5165;;;;
2019/09/13 11:53:28;;;;;;;2.2;1.1;;;;;;;37.13;26.2998;951.4855;;;;
2019/09/13 11:56:01;;;;;;;2.7;1.1;;;;;;;37.68;25.9668;951.4867;;;;
2019/09/13 11:58:31;;;;;;;2.1;1.1;;;;;;;37.67;26.16016;951.4393;;;;
2019/09/13 12:01:18;;;;;;;3.7;1.1;;;;;;;38.21;25.48633;951.3519;;;;
2019/09/13 12:06:13;;;;;;;3.4;1.1;;;;;;;38.86;25.09668;951.3886;;;;
2019/09/13 12:08:43;;;;;;;3.1;1.2;;;;;;;39.12;24.44141;951.4119;;;;
2019/09/13 12:11:04;;;;;;;2.5;1.2;;;;;;;38.87;24.81738;951.3578;;;;
2019/09/13 12:13:33;;;;;;;2.1;1.1;;;;;;;38.23;25.64551;951.3109;;;;
2019/09/13 12:16:00;;;;;;;4.1;1.2;;;;;;;37.94;25.42285;951.3764;;;;
2019/09/13 12:18:25;;;;;;;2.7;1.2;;;;;;;38.34;25.16602;951.2711;;;;
2019/09/13 12:20:52;;;;;;;1.9;1.1;;;;;;;38.71;25.17383;951.3614;;;;
2019/09/13 12:23:23;;;;;;;3;1.2;;;;;;;38.82;24.68066;951.3806;;;;
2019/09/13 12:25:55;;;;;;;4.5;1.2;;;;;;;38.84;24.18359;951.3596;;;;
2019/09/13 12:28:48;;;;;;;2.2;1.1;;;;;;;38.13;25.56738;951.3948;;;;
2019/09/13 12:31:08;;;;;;;2.7;1.2;;;;;;;38.37;25.10645;951.4562;;;;
2019/09/13 12:33:36;;;;;;;2.9;1.2;;;;;;;38.66;24.30762;951.485;;;;
2019/09/13 12:36:27;;;;;;;4;1.1;;;;;;;39.02;24.45996;951.4886;;;;
2019/09/13 12:39:20;;;;;;;2.7;1.1;;;;;;;38.87;24.24609;951.4891;;;;
2019/09/13 12:41:49;;;;;;;3.1;1.1;;;;;;;39.21;23.84961;951.4936;;;;
2019/09/13 12:44:20;;;;;;;5.4;1.3;;;;;;;38.29;25.68555;951.4773;;;;
2019/09/13 12:46:47;;;;;;;2.5;1.2;;;;;;;37.59;26.45898;951.4509;;;;
2019/09/13 12:49:13;;;;;;;1.9;1.1;;;;;;;37.76;25.85059;951.4419;;;;
2019/09/13 12:51:41;;;;;;;2.7;1.2;;;;;;;38.42;25.69238;951.4155;;;;
2019/09/13 12:54:09;;;;;;;3.2;1.3;;;;;;;38.55;25.00781;951.4425;;;;
2019/09/13 12:56:49;;;;;;;6;1.3;;;;;;;38.11;25.88184;951.4281;;;;
2019/09/13 12:59:21;;;;;;;1.9;1.2;;;;;;;37.69;26.68359;951.4201;;;;
2019/09/13 13:01:57;;;;;;;3.3;1.3;;;;;;;37.73;26.40723;951.4725;;;;
2019/09/13 13:04:20;;;;;;;2.2;1.2;;;;;;;37.64;26.12305;951.452;;;;
2019/09/13 13:06:48;;;;;;;4.9;1.2;;;;;;;38.03;25.92578;951.4363;;;;
2019/09/13 13:09:13;;;;;;;5.7;1.4;;;;;;;37.71;26.47852;951.3541;;;;
2019/09/13 13:11:39;;;;;;;7.4;1.3;;;;;;;37.86;25.92871;951.3289;;;;
2019/09/13 13:14:18;;;;;;;8;1.5;;;;;;;37.36;26.87012;951.3576;;;;
2019/09/13 13:16:48;;;;;;;14;2;;;;;;;37.7;27.23047;951.3617;;;;
2019/09/13 13:19:24;;;;;;;3.6;1.1;;;;;;;38.15;26.04199;951.3205;;;;
2019/09/13 13:21:49;;;;;;;2.4;1.3;;;;;;;38.22;25.86426;951.3794;;;;
2019/09/13 13:24:18;;;;;;;4.5;1.2;;;;;;;38.29;25.67383;951.4402;;;;
2019/09/13 13:26:44;;;;;;;2.4;1.2;;;;;;;38.35;25.45801;951.3681;;;;
2019/09/13 13:29:13;;;;;;;5.5;1.4;;;;;;;37.81;26.55762;951.3448;;;;
2019/09/13 13:31:40;;;;;;;8.8;1.5;;;;;;;37.07;27.49512;951.2519;;;;
2019/09/13 13:34:10;;;;;;;5;1.7;;;;;;;36.84;27.67578;951.2715;;;;
2019/09/13 13:36:36;;;;;;;3.2;1.2;;;;;;;37.15;26.91895;951.2576;;;;
2019/09/13 13:39:13;;;;;;;3.2;1.2;;;;;;;36.49;28.17578;951.1989;;;;
2019/09/13 13:42:11;;;;;;;8.9;1.3;;;;;;;36.25;29.16406;951.1916;;;;
2019/09/13 13:44:23;;;;;;;5.7;1.5;;;;;;;36.1;28.50195;951.1506;;;;
2019/09/13 13:47:08;;;;;;;2.2;1.3;;;;;;;35.65;29.75391;951.1565;;;;
2019/09/13 13:50:17;;;;;;;5.5;1.4;;;;;;;35.4;30.07617;951.1428;;;;
2019/09/13 13:52:44;;;;;;;4.5;1.4;;;;;;;34.67;30.58301;951.1214;;;;
2019/09/13 13:55:16;;;;;;;6;1.5;;;;;;;34.33;31.46289;951.0974;;;;
2019/09/13 13:57:48;;;;;;;14.2;2.1;;;;;;;33.44;33.51758;951.0881;;;;
2019/09/13 14:00:22;;;;;;;5.4;1.6;;;;;;;32.83;34.16895;951.1442;;;;
2019/09/13 14:02:41;;;;;;;22.9;2.8;;;;;;;32.03;36.62695;951.0732;;;;
2019/09/13 14:05:14;;;;;;;4.7;1.5;;;;;;;31.07;36.93164;951.1013;;;;
2019/09/13 14:07:39;;;;;;;4.6;1.7;;;;;;;30.27;38.06055;951.0407;;;;
2019/09/13 14:10:14;;;;;;;8.2;1.5;;;;;;;29.81;40.07324;951.0131;;;;
2019/09/13 14:12:45;;;;;;;4.3;1.6;;;;;;;29.35;40.92676;951.0243;;;;
2019/09/13 14:15:18;;;;;;;3.5;1.4;;;;;;;28.97;41.35547;951.0639;;;;
2019/09/13 14:17:43;;;;;;;4.9;1.7;;;;;;;28.3;43.2666;951.0818;;;;
2019/09/13 14:20:10;;;;;;;14.6;2.2;;;;;;;28.3;43.81445;950.9931;;;;
2019/09/13 14:22:44;;;;;;;8.3;1.9;;;;;;;28.38;44.40527;950.999;;;;
2019/09/13 14:25:16;;;;;;;9.4;1.9;;;;;;;28.34;43.62793;950.9769;;;;
2019/09/13 14:27:39;;;;;;;6.2;1.8;;;;;;;27.96;45.71582;950.9525;;;;
2019/09/13 14:30:15;;;;;;;4.5;1.8;;;;;;;27.85;44.74414;950.9121;;;;
2019/09/13 14:32:35;;;;;;;3.3;1.7;;;;;;;27.76;45.79102;950.972;;;;
2019/09/13 14:35:13;;;;;;;3;1.4;;;;;;;27.65;45.68555;950.9128;;;;
2019/09/13 14:37:46;;;;;;;6.8;1.8;;;;;;;27.62;46.53711;950.8709;;;;
2019/09/13 14:40:13;;;;;;;6.1;1.7;;;;;;;27.41;45.8623;950.8601;;;;
2019/09/13 14:46:22;;;;;;;4.3;1.6;;;;;;;27.4;46.71582;950.7794;;;;
2019/09/13 14:48:39;;;;;;;5.1;1.8;;;;;;;26.98;46.93359;950.835;;;;
2019/09/13 14:51:20;;;;;;;4.8;1.8;;;;;;;27.02;47.86133;950.8605;;;;
2019/09/13 14:55:02;;;;;;;3.8;1.8;;;;;;;26.94;47.8291;950.7737;;;;
2019/09/13 14:57:48;;;;;;;2.5;1.6;;;;;;;26.68;48.5;950.8017;;;;
2019/09/13 15:01:25;;;;;;;4.7;1.9;;;;;;;26.76;48.49707;950.7631;;;;
2019/09/13 15:02:52;;;;;;;4.2;2;;;;;;;26.53;48.73242;950.7957;;;;
2019/09/13 15:05:25;;;;;;;3.5;1.7;;;;;;;26.04;49.22363;950.7654;;;;
2019/09/13 15:07:50;;;;;;;4.8;1.9;;;;;;;26.08;50.31543;950.7381;;;;
2019/09/13 15:10:19;;;;;;;3;1.7;;;;;;;26.12;50.93555;950.7809;;;;
2019/09/13 15:12:54;;;;;;;3.9;1.9;;;;;;;26.18;50.98926;950.7578;;;;
2019/09/13 15:15:26;;;;;;;4.7;1.9;;;;;;;26;51.1582;950.7656;;;;
2019/09/13 15:17:56;;;;;;;4.1;1.8;;;;;;;25.95;51.44824;950.8315;;;;
2019/09/13 15:20:28;;;;;;;2.4;1.6;;;;;;;25.92;50.91309;950.8242;;;;
2019/09/13 15:22:54;;;;;;;3.8;1.9;;;;;;;25.91;51.2666;950.7896;;;;
2019/09/13 15:25:43;;;;;;;4;1.7;;;;;;;25.72;51.2207;950.795;;;;
2019/09/13 15:28:16;;;;;;;4.3;2.1;;;;;;;25.48;52.13867;950.7865;;;;
2019/09/13 15:30:34;;;;;;;3.5;1.9;;;;;;;25.49;51.59668;950.8295;;;;
2019/09/13 15:33:13;;;;;;;4.6;1.9;;;;;;;25.36;51.77051;950.7349;;;;
2019/09/13 15:35:37;;;;;;;5.7;2;;;;;;;25.24;52.74805;950.7367;;;;
2019/09/13 15:38:09;;;;;;;3.7;1.9;;;;;;;25.14;52.68848;950.7742;;;;
2019/09/13 15:40:31;;;;;;;4.1;2;;;;;;;25.14;52.68848;950.8158;;;;
2019/09/13 15:43:04;;;;;;;4.5;2.1;;;;;;;24.98;53.07227;950.86;;;;
2019/09/13 15:45:31;;;;;;;6.6;2.1;;;;;;;24.95;52.84473;950.8691;;;;
2019/09/13 15:48:04;;;;;;;3.7;1.8;;;;;;;25.02;53.18359;950.8706;;;;
2019/09/13 15:50:32;;;;;;;5.4;1.9;;;;;;;24.95;53.54102;950.8787;;;;
2019/09/13 15:52:55;;;;;;;5.2;2.1;;;;;;;24.82;53.18262;950.8672;;;;
2019/09/13 15:55:28;;;;;;;3.9;2;;;;;;;24.78;53.67188;950.8594;;;;
2019/09/13 15:57:54;;;;;;;4;1.9;;;;;;;24.87;53.82617;950.8997;;;;
2019/09/13 16:00:18;;;;;;;3.2;1.8;;;;;;;24.64;54.43555;950.9141;;;;
2019/09/13 16:02:47;;;;;;;4.8;2;;;;;;;24.64;54.20996;950.9281;;;;
2019/09/13 16:05:12;;;;;;;2.9;2;;;;;;;24.59;53.89844;950.8987;;;;
2019/09/13 16:07:43;;;;;;;4.1;1.9;;;;;;;24.55;54.39941;950.9113;;;;
2019/09/13 16:10:17;;;;;;;3.8;1.8;;;;;;;24.55;54.58789;950.8909;;;;
2019/09/13 16:12:49;;;;;;;4.3;2;;;;;;;24.47;54.24805;950.822;;;;
2019/09/13 16:15:20;;;;;;;3.6;2;;;;;;;24.42;55.02051;950.8588;;;;
2019/09/13 16:17:53;;;;;;;3.2;1.8;;;;;;;24.27;55.17871;950.836;;;;
2019/09/13 16:20:19;;;;;;;3.9;1.9;;;;;;;24.32;55.18457;950.8789;;;;
2019/09/13 16:22:50;;;;;;;7.1;1.9;;;;;;;24.33;55.35254;950.8738;;;;
2019/09/13 16:25:26;;;;;;;3.4;1.9;;;;;;;24.2;55.92285;950.9302;;;;